sensor_id;sensor_type;location;lat;lon;timestamp;P1;durP1;ratioP1;P2;durP2;ratioP2
12844;SDS011;68700;48.534;9.196;2024-03-02T00:03:15;13.40;;;9.77;;
12844;SDS011;68700;48.534;9.196;2024-03-02T00:06:37;13.57;;;10.10;;
12844;SDS011;68700;48.534;9.196;2024-03-02T00:09:59;16.03;;;10.80;;
12844;SDS011;68700;48.534;9.196;2024-03-02T00:13:22;15.47;;;11.20;;
12844;SDS011;68700;48.534;9.196;2024-03-02T00:16:44;15.13;;;10.97;;
12844;SDS011;68700;48.534;9.196;2024-03-02T00:20:07;16.33;;;11.77;;
12844;SDS011;68700;48.534;9.196;2024-03-02T00:23:31;14.07;;;10.80;;
12844;SDS011;68700;48.534;9.196;2024-03-02T00:26:53;15.50;;;11.33;;
12844;SDS011;68700;48.534;9.196;2024-03-02T00:30:27;15.13;;;11.10;;
12844;SDS011;68700;48.534;9.196;2024-03-02T00:34:12;16.87;;;11.73;;
12844;SDS011;68700;48.534;9.196;2024-03-02T00:37:36;17.60;;;11.73;;
12844;SDS011;68700;48.534;9.196;2024-03-02T00:40:58;15.10;;;10.83;;
12844;SDS011;68700;48.534;9.196;2024-03-02T00:44:20;15.90;;;11.07;;
12844;SDS011;68700;48.534;9.196;2024-03-02T00:47:47;15.83;;;11.40;;
12844;SDS011;68700;48.534;9.196;2024-03-02T00:51:09;12.53;;;9.77;;
12844;SDS011;68700;48.534;9.196;2024-03-02T00:54:31;15.57;;;11.30;;
12844;SDS011;68700;48.534;9.196;2024-03-02T00:57:54;12.57;;;10.23;;
12844;SDS011;68700;48.534;9.196;2024-03-02T01:01:16;13.40;;;10.27;;
12844;SDS011;68700;48.534;9.196;2024-03-02T01:04:39;13.10;;;10.00;;
12844;SDS011;68700;48.534;9.196;2024-03-02T01:08:01;12.70;;;9.50;;
12844;SDS011;68700;48.534;9.196;2024-03-02T01:11:23;12.13;;;8.93;;
12844;SDS011;68700;48.534;9.196;2024-03-02T01:14:45;12.50;;;9.87;;
12844;SDS011;68700;48.534;9.196;2024-03-02T01:18:07;12.37;;;9.03;;
12844;SDS011;68700;48.534;9.196;2024-03-02T01:21:30;11.30;;;8.50;;
12844;SDS011;68700;48.534;9.196;2024-03-02T01:24:52;10.37;;;8.17;;
12844;SDS011;68700;48.534;9.196;2024-03-02T01:28:14;14.03;;;9.87;;
12844;SDS011;68700;48.534;9.196;2024-03-02T01:31:36;12.87;;;9.07;;
12844;SDS011;68700;48.534;9.196;2024-03-02T01:34:59;12.37;;;9.50;;
12844;SDS011;68700;48.534;9.196;2024-03-02T01:38:23;15.63;;;9.77;;
12844;SDS011;68700;48.534;9.196;2024-03-02T01:41:44;12.10;;;9.27;;
12844;SDS011;68700;48.534;9.196;2024-03-02T01:45:07;12.17;;;9.17;;
12844;SDS011;68700;48.534;9.196;2024-03-02T01:48:30;12.83;;;9.07;;
12844;SDS011;68700;48.534;9.196;2024-03-02T01:51:52;13.50;;;8.67;;
12844;SDS011;68700;48.534;9.196;2024-03-02T01:55:15;11.20;;;8.17;;
12844;SDS011;68700;48.534;9.196;2024-03-02T01:58:36;12.80;;;9.37;;
12844;SDS011;68700;48.534;9.196;2024-03-02T02:01:58;12.00;;;8.73;;
12844;SDS011;68700;48.534;9.196;2024-03-02T02:05:21;11.63;;;9.20;;
12844;SDS011;68700;48.534;9.196;2024-03-02T02:08:43;10.67;;;8.77;;
12844;SDS011;68700;48.534;9.196;2024-03-02T02:12:06;11.70;;;8.20;;
12844;SDS011;68700;48.534;9.196;2024-03-02T02:15:30;12.93;;;8.97;;
12844;SDS011;68700;48.534;9.196;2024-03-02T02:18:54;11.53;;;8.97;;
12844;SDS011;68700;48.534;9.196;2024-03-02T02:22:18;10.17;;;7.93;;
12844;SDS011;68700;48.534;9.196;2024-03-02T02:25:39;11.03;;;8.30;;
12844;SDS011;68700;48.534;9.196;2024-03-02T02:29:01;9.67;;;7.00;;
12844;SDS011;68700;48.534;9.196;2024-03-02T02:32:23;13.77;;;7.60;;
12844;SDS011;68700;48.534;9.196;2024-03-02T02:35:45;9.50;;;7.63;;
12844;SDS011;68700;48.534;9.196;2024-03-02T02:39:09;9.53;;;7.47;;
12844;SDS011;68700;48.534;9.196;2024-03-02T02:42:32;12.10;;;7.37;;
12844;SDS011;68700;48.534;9.196;2024-03-02T02:45:54;12.10;;;7.57;;
12844;SDS011;68700;48.534;9.196;2024-03-02T02:49:15;10.57;;;7.50;;
12844;SDS011;68700;48.534;9.196;2024-03-02T02:52:38;9.43;;;7.50;;
12844;SDS011;68700;48.534;9.196;2024-03-02T02:56:02;8.60;;;7.33;;
12844;SDS011;68700;48.534;9.196;2024-03-02T02:59:24;10.97;;;8.30;;
12844;SDS011;68700;48.534;9.196;2024-03-02T03:02:47;11.33;;;8.10;;
12844;SDS011;68700;48.534;9.196;2024-03-02T03:06:10;13.40;;;8.93;;
12844;SDS011;68700;48.534;9.196;2024-03-02T03:09:32;9.80;;;8.03;;
12844;SDS011;68700;48.534;9.196;2024-03-02T03:12:55;10.60;;;8.23;;
12844;SDS011;68700;48.534;9.196;2024-03-02T03:16:17;11.37;;;9.00;;
12844;SDS011;68700;48.534;9.196;2024-03-02T03:19:38;14.23;;;9.47;;
12844;SDS011;68700;48.534;9.196;2024-03-02T03:23:00;12.93;;;9.10;;
12844;SDS011;68700;48.534;9.196;2024-03-02T03:26:24;12.87;;;8.97;;
12844;SDS011;68700;48.534;9.196;2024-03-02T03:29:47;12.80;;;9.13;;
12844;SDS011;68700;48.534;9.196;2024-03-02T03:33:09;15.53;;;9.77;;
12844;SDS011;68700;48.534;9.196;2024-03-02T03:36:30;11.60;;;8.40;;
12844;SDS011;68700;48.534;9.196;2024-03-02T03:39:52;10.20;;;8.60;;
12844;SDS011;68700;48.534;9.196;2024-03-02T03:43:14;10.93;;;7.80;;
12844;SDS011;68700;48.534;9.196;2024-03-02T03:46:37;10.70;;;8.37;;
12844;SDS011;68700;48.534;9.196;2024-03-02T03:49:59;10.63;;;8.13;;
12844;SDS011;68700;48.534;9.196;2024-03-02T03:53:21;9.23;;;6.90;;
12844;SDS011;68700;48.534;9.196;2024-03-02T03:56:44;11.03;;;8.53;;
12844;SDS011;68700;48.534;9.196;2024-03-02T04:00:06;9.50;;;7.73;;
12844;SDS011;68700;48.534;9.196;2024-03-02T04:03:31;11.90;;;8.30;;
12844;SDS011;68700;48.534;9.196;2024-03-02T04:06:53;12.13;;;8.30;;
12844;SDS011;68700;48.534;9.196;2024-03-02T04:10:15;11.67;;;8.13;;
12844;SDS011;68700;48.534;9.196;2024-03-02T04:13:37;9.97;;;7.43;;
12844;SDS011;68700;48.534;9.196;2024-03-02T04:16:59;9.50;;;7.37;;
12844;SDS011;68700;48.534;9.196;2024-03-02T04:20:22;9.27;;;7.33;;
12844;SDS011;68700;48.534;9.196;2024-03-02T04:23:45;8.50;;;7.20;;
12844;SDS011;68700;48.534;9.196;2024-03-02T04:27:07;10.03;;;7.43;;
12844;SDS011;68700;48.534;9.196;2024-03-02T04:30:29;11.83;;;8.37;;
12844;SDS011;68700;48.534;9.196;2024-03-02T04:33:50;11.43;;;8.17;;
12844;SDS011;68700;48.534;9.196;2024-03-02T04:37:14;10.87;;;8.13;;
12844;SDS011;68700;48.534;9.196;2024-03-02T04:40:35;11.90;;;7.87;;
12844;SDS011;68700;48.534;9.196;2024-03-02T04:43:57;11.00;;;7.63;;
12844;SDS011;68700;48.534;9.196;2024-03-02T04:47:19;10.23;;;7.43;;
12844;SDS011;68700;48.534;9.196;2024-03-02T04:50:41;11.77;;;7.63;;
12844;SDS011;68700;48.534;9.196;2024-03-02T04:54:04;11.80;;;8.57;;
12844;SDS011;68700;48.534;9.196;2024-03-02T04:57:26;9.40;;;7.70;;
12844;SDS011;68700;48.534;9.196;2024-03-02T05:00:48;9.73;;;7.53;;
12844;SDS011;68700;48.534;9.196;2024-03-02T05:04:10;12.13;;;8.13;;
12844;SDS011;68700;48.534;9.196;2024-03-02T05:07:32;10.80;;;9.10;;
12844;SDS011;68700;48.534;9.196;2024-03-02T05:10:55;13.50;;;9.13;;
12844;SDS011;68700;48.534;9.196;2024-03-02T05:14:37;12.93;;;9.37;;
12844;SDS011;68700;48.534;9.196;2024-03-02T05:17:59;10.90;;;8.20;;
12844;SDS011;68700;48.534;9.196;2024-03-02T05:21:22;10.70;;;8.13;;
12844;SDS011;68700;48.534;9.196;2024-03-02T05:24:44;12.13;;;8.13;;
12844;SDS011;68700;48.534;9.196;2024-03-02T05:28:07;10.13;;;7.43;;
12844;SDS011;68700;48.534;9.196;2024-03-02T05:31:29;9.63;;;7.40;;
12844;SDS011;68700;48.534;9.196;2024-03-02T05:34:51;10.70;;;7.80;;
12844;SDS011;68700;48.534;9.196;2024-03-02T05:38:13;10.90;;;7.73;;
12844;SDS011;68700;48.534;9.196;2024-03-02T05:41:35;9.23;;;7.53;;
12844;SDS011;68700;48.534;9.196;2024-03-02T05:44:59;99.20;;;45.10;;
12844;SDS011;68700;48.534;9.196;2024-03-02T05:48:21;144.60;;;62.43;;
12844;SDS011;68700;48.534;9.196;2024-03-02T05:51:43;48.57;;;25.10;;
12844;SDS011;68700;48.534;9.196;2024-03-02T05:55:05;40.63;;;19.93;;
12844;SDS011;68700;48.534;9.196;2024-03-02T05:58:27;22.27;;;13.50;;
12844;SDS011;68700;48.534;9.196;2024-03-02T06:01:59;19.20;;;11.87;;
12844;SDS011;68700;48.534;9.196;2024-03-02T06:05:21;13.87;;;10.37;;
12844;SDS011;68700;48.534;9.196;2024-03-02T06:08:43;13.57;;;9.57;;
12844;SDS011;68700;48.534;9.196;2024-03-02T06:12:05;16.93;;;9.43;;
12844;SDS011;68700;48.534;9.196;2024-03-02T06:15:27;14.13;;;10.10;;
12844;SDS011;68700;48.534;9.196;2024-03-02T06:18:50;16.53;;;10.27;;
12844;SDS011;68700;48.534;9.196;2024-03-02T06:22:13;13.87;;;9.33;;
12844;SDS011;68700;48.534;9.196;2024-03-02T06:25:35;17.13;;;10.73;;
12844;SDS011;68700;48.534;9.196;2024-03-02T06:28:57;16.17;;;10.40;;
12844;SDS011;68700;48.534;9.196;2024-03-02T06:32:19;15.17;;;9.87;;
12844;SDS011;68700;48.534;9.196;2024-03-02T06:35:42;14.90;;;10.03;;
12844;SDS011;68700;48.534;9.196;2024-03-02T06:39:04;16.33;;;11.87;;
12844;SDS011;68700;48.534;9.196;2024-03-02T06:42:26;16.57;;;12.17;;
12844;SDS011;68700;48.534;9.196;2024-03-02T06:45:53;18.10;;;12.77;;
12844;SDS011;68700;48.534;9.196;2024-03-02T06:49:14;18.80;;;12.10;;
12844;SDS011;68700;48.534;9.196;2024-03-02T06:52:39;18.60;;;12.83;;
12844;SDS011;68700;48.534;9.196;2024-03-02T06:56:01;17.67;;;11.97;;
12844;SDS011;68700;48.534;9.196;2024-03-02T06:59:23;21.50;;;12.80;;
12844;SDS011;68700;48.534;9.196;2024-03-02T07:02:45;25.47;;;14.07;;
12844;SDS011;68700;48.534;9.196;2024-03-02T07:06:07;23.43;;;14.60;;
12844;SDS011;68700;48.534;9.196;2024-03-02T07:09:30;27.77;;;15.43;;
12844;SDS011;68700;48.534;9.196;2024-03-02T07:12:52;35.93;;;18.60;;
12844;SDS011;68700;48.534;9.196;2024-03-02T07:16:13;29.70;;;18.67;;
12844;SDS011;68700;48.534;9.196;2024-03-02T07:19:49;47.03;;;32.20;;
12844;SDS011;68700;48.534;9.196;2024-03-02T07:23:11;25.83;;;18.07;;
12844;SDS011;68700;48.534;9.196;2024-03-02T07:26:34;27.50;;;19.07;;
12844;SDS011;68700;48.534;9.196;2024-03-02T07:29:56;19.80;;;14.87;;
12844;SDS011;68700;48.534;9.196;2024-03-02T07:33:18;17.10;;;13.17;;
12844;SDS011;68700;48.534;9.196;2024-03-02T07:36:41;13.47;;;11.30;;
12844;SDS011;68700;48.534;9.196;2024-03-02T07:40:03;14.20;;;10.60;;
12844;SDS011;68700;48.534;9.196;2024-03-02T07:43:30;12.97;;;9.90;;
12844;SDS011;68700;48.534;9.196;2024-03-02T07:46:53;12.30;;;10.47;;
12844;SDS011;68700;48.534;9.196;2024-03-02T07:50:15;10.97;;;9.20;;
12844;SDS011;68700;48.534;9.196;2024-03-02T07:53:37;12.47;;;9.40;;
12844;SDS011;68700;48.534;9.196;2024-03-02T07:56:58;22.33;;;17.87;;
12844;SDS011;68700;48.534;9.196;2024-03-02T08:00:22;16.87;;;12.77;;
12844;SDS011;68700;48.534;9.196;2024-03-02T08:03:45;16.53;;;11.43;;
12844;SDS011;68700;48.534;9.196;2024-03-02T08:07:10;17.00;;;14.10;;
12844;SDS011;68700;48.534;9.196;2024-03-02T08:10:31;17.60;;;13.57;;
12844;SDS011;68700;48.534;9.196;2024-03-02T08:13:54;17.77;;;14.57;;
12844;SDS011;68700;48.534;9.196;2024-03-02T08:17:17;11.47;;;10.07;;
12844;SDS011;68700;48.534;9.196;2024-03-02T08:20:39;10.97;;;9.00;;
12844;SDS011;68700;48.534;9.196;2024-03-02T08:24:01;9.70;;;7.93;;
12844;SDS011;68700;48.534;9.196;2024-03-02T08:27:24;14.10;;;12.73;;
12844;SDS011;68700;48.534;9.196;2024-03-02T08:30:45;21.97;;;19.93;;
12844;SDS011;68700;48.534;9.196;2024-03-02T08:34:09;14.90;;;13.50;;
12844;SDS011;68700;48.534;9.196;2024-03-02T08:37:30;8.37;;;7.10;;
12844;SDS011;68700;48.534;9.196;2024-03-02T08:40:52;7.53;;;6.77;;
12844;SDS011;68700;48.534;9.196;2024-03-02T08:44:14;8.17;;;7.37;;
12844;SDS011;68700;48.534;9.196;2024-03-02T08:47:37;7.67;;;6.97;;
12844;SDS011;68700;48.534;9.196;2024-03-02T08:51:00;9.07;;;7.13;;
12844;SDS011;68700;48.534;9.196;2024-03-02T08:54:24;9.50;;;7.50;;
12844;SDS011;68700;48.534;9.196;2024-03-02T08:57:46;8.03;;;7.17;;
12844;SDS011;68700;48.534;9.196;2024-03-02T09:01:10;7.47;;;6.73;;
12844;SDS011;68700;48.534;9.196;2024-03-02T09:04:32;7.97;;;7.13;;
12844;SDS011;68700;48.534;9.196;2024-03-02T09:07:56;8.33;;;7.30;;
12844;SDS011;68700;48.534;9.196;2024-03-02T09:11:17;8.53;;;7.63;;
12844;SDS011;68700;48.534;9.196;2024-03-02T09:14:40;7.63;;;6.63;;
12844;SDS011;68700;48.534;9.196;2024-03-02T09:18:02;8.77;;;7.33;;
12844;SDS011;68700;48.534;9.196;2024-03-02T09:21:24;7.60;;;6.80;;
12844;SDS011;68700;48.534;9.196;2024-03-02T09:24:48;8.20;;;7.10;;
12844;SDS011;68700;48.534;9.196;2024-03-02T09:28:09;8.90;;;7.37;;
12844;SDS011;68700;48.534;9.196;2024-03-02T09:31:31;7.67;;;6.87;;
12844;SDS011;68700;48.534;9.196;2024-03-02T09:34:53;7.37;;;6.20;;
12844;SDS011;68700;48.534;9.196;2024-03-02T09:38:15;6.13;;;5.53;;
12844;SDS011;68700;48.534;9.196;2024-03-02T09:41:39;5.77;;;5.27;;
12844;SDS011;68700;48.534;9.196;2024-03-02T09:45:01;6.27;;;5.77;;
12844;SDS011;68700;48.534;9.196;2024-03-02T09:48:23;6.13;;;5.53;;
12844;SDS011;68700;48.534;9.196;2024-03-02T09:51:46;6.10;;;5.50;;
12844;SDS011;68700;48.534;9.196;2024-03-02T09:55:09;6.77;;;6.03;;
12844;SDS011;68700;48.534;9.196;2024-03-02T09:58:34;6.57;;;5.97;;
12844;SDS011;68700;48.534;9.196;2024-03-02T10:01:56;7.23;;;6.53;;
12844;SDS011;68700;48.534;9.196;2024-03-02T10:05:28;7.70;;;6.13;;
12844;SDS011;68700;48.534;9.196;2024-03-02T10:08:50;6.77;;;6.10;;
12844;SDS011;68700;48.534;9.196;2024-03-02T10:12:12;7.17;;;6.47;;
12844;SDS011;68700;48.534;9.196;2024-03-02T10:15:37;7.53;;;6.83;;
12844;SDS011;68700;48.534;9.196;2024-03-02T10:19:12;6.63;;;6.03;;
12844;SDS011;68700;48.534;9.196;2024-03-02T10:22:37;6.20;;;5.70;;
12844;SDS011;68700;48.534;9.196;2024-03-02T10:25:59;6.70;;;6.10;;
12844;SDS011;68700;48.534;9.196;2024-03-02T10:29:21;5.97;;;5.47;;
12844;SDS011;68700;48.534;9.196;2024-03-02T10:32:44;6.93;;;6.33;;
12844;SDS011;68700;48.534;9.196;2024-03-02T10:36:06;6.20;;;5.63;;
12844;SDS011;68700;48.534;9.196;2024-03-02T10:39:29;7.23;;;6.53;;
12844;SDS011;68700;48.534;9.196;2024-03-02T10:42:52;6.00;;;5.40;;
12844;SDS011;68700;48.534;9.196;2024-03-02T10:46:14;6.87;;;6.27;;
12844;SDS011;68700;48.534;9.196;2024-03-02T10:49:41;6.77;;;6.17;;
12844;SDS011;68700;48.534;9.196;2024-03-02T10:53:04;6.60;;;6.00;;
12844;SDS011;68700;48.534;9.196;2024-03-02T10:56:27;6.00;;;5.50;;
12844;SDS011;68700;48.534;9.196;2024-03-02T10:59:51;5.57;;;5.07;;
12844;SDS011;68700;48.534;9.196;2024-03-02T11:03:17;5.87;;;5.07;;
12844;SDS011;68700;48.534;9.196;2024-03-02T11:06:41;5.80;;;5.30;;
12844;SDS011;68700;48.534;9.196;2024-03-02T11:10:09;5.03;;;4.20;;
12844;SDS011;68700;48.534;9.196;2024-03-02T11:13:33;5.20;;;4.40;;
12844;SDS011;68700;48.534;9.196;2024-03-02T11:16:55;5.20;;;4.80;;
12844;SDS011;68700;48.534;9.196;2024-03-02T11:20:18;5.53;;;5.03;;
12844;SDS011;68700;48.534;9.196;2024-03-02T11:23:42;5.03;;;4.63;;
12844;SDS011;68700;48.534;9.196;2024-03-02T11:27:04;5.00;;;4.60;;
12844;SDS011;68700;48.534;9.196;2024-03-02T11:34:18;4.93;;;4.20;;
12844;SDS011;68700;48.534;9.196;2024-03-02T11:37:50;4.43;;;4.00;;
12844;SDS011;68700;48.534;9.196;2024-03-02T11:41:13;4.70;;;4.30;;
12844;SDS011;68700;48.534;9.196;2024-03-02T11:44:35;4.07;;;3.73;;
12844;SDS011;68700;48.534;9.196;2024-03-02T11:47:58;4.07;;;3.60;;
12844;SDS011;68700;48.534;9.196;2024-03-02T11:51:21;3.47;;;3.17;;
12844;SDS011;68700;48.534;9.196;2024-03-02T11:54:44;3.73;;;3.17;;
12844;SDS011;68700;48.534;9.196;2024-03-02T11:58:12;3.20;;;3.00;;
12844;SDS011;68700;48.534;9.196;2024-03-02T12:01:35;3.10;;;2.80;;
12844;SDS011;68700;48.534;9.196;2024-03-02T12:04:57;2.90;;;2.60;;
12844;SDS011;68700;48.534;9.196;2024-03-02T12:08:20;3.03;;;2.83;;
12844;SDS011;68700;48.534;9.196;2024-03-02T12:11:43;4.37;;;2.70;;
12844;SDS011;68700;48.534;9.196;2024-03-02T12:15:07;2.97;;;2.13;;
12844;SDS011;68700;48.534;9.196;2024-03-02T12:18:30;6.20;;;2.00;;
12844;SDS011;68700;48.534;9.196;2024-03-02T12:21:51;2.87;;;2.67;;
12844;SDS011;68700;48.534;9.196;2024-03-02T12:25:14;2.63;;;2.43;;
12844;SDS011;68700;48.534;9.196;2024-03-02T12:28:37;2.27;;;2.07;;
12844;SDS011;68700;48.534;9.196;2024-03-02T12:32:00;2.40;;;2.20;;
12844;SDS011;68700;48.534;9.196;2024-03-02T12:35:23;2.67;;;2.47;;
12844;SDS011;68700;48.534;9.196;2024-03-02T12:38:46;1.53;;;1.40;;
12844;SDS011;68700;48.534;9.196;2024-03-02T12:42:08;1.83;;;1.73;;
12844;SDS011;68700;48.534;9.196;2024-03-02T12:45:30;2.00;;;1.80;;
12844;SDS011;68700;48.534;9.196;2024-03-02T12:48:56;1.60;;;1.50;;
12844;SDS011;68700;48.534;9.196;2024-03-02T12:52:19;1.93;;;1.73;;
12844;SDS011;68700;48.534;9.196;2024-03-02T12:55:41;1.83;;;1.67;;
12844;SDS011;68700;48.534;9.196;2024-03-02T12:59:03;1.60;;;1.50;;
12844;SDS011;68700;48.534;9.196;2024-03-02T13:02:27;2.17;;;1.50;;
12844;SDS011;68700;48.534;9.196;2024-03-02T13:05:50;1.63;;;1.50;;
12844;SDS011;68700;48.534;9.196;2024-03-02T13:09:13;1.40;;;1.30;;
12844;SDS011;68700;48.534;9.196;2024-03-02T13:12:35;1.63;;;1.50;;
12844;SDS011;68700;48.534;9.196;2024-03-02T13:15:58;1.97;;;1.40;;
12844;SDS011;68700;48.534;9.196;2024-03-02T13:19:19;1.40;;;1.30;;
12844;SDS011;68700;48.534;9.196;2024-03-02T13:22:43;1.30;;;1.20;;
12844;SDS011;68700;48.534;9.196;2024-03-02T13:26:04;1.57;;;1.40;;
12844;SDS011;68700;48.534;9.196;2024-03-02T13:29:27;1.90;;;1.30;;
12844;SDS011;68700;48.534;9.196;2024-03-02T13:32:49;2.17;;;1.30;;
12844;SDS011;68700;48.534;9.196;2024-03-02T13:36:11;1.40;;;1.30;;
12844;SDS011;68700;48.534;9.196;2024-03-02T13:39:34;1.50;;;1.27;;
12844;SDS011;68700;48.534;9.196;2024-03-02T13:43:00;1.30;;;1.20;;
12844;SDS011;68700;48.534;9.196;2024-03-02T13:46:22;1.20;;;1.10;;
12844;SDS011;68700;48.534;9.196;2024-03-02T13:49:44;1.47;;;1.37;;
12844;SDS011;68700;48.534;9.196;2024-03-02T13:53:06;1.33;;;1.23;;
12844;SDS011;68700;48.534;9.196;2024-03-02T13:56:30;1.50;;;1.40;;
12844;SDS011;68700;48.534;9.196;2024-03-02T13:59:52;1.40;;;1.30;;
12844;SDS011;68700;48.534;9.196;2024-03-02T14:03:14;1.30;;;1.20;;
12844;SDS011;68700;48.534;9.196;2024-03-02T14:06:36;1.33;;;1.23;;
12844;SDS011;68700;48.534;9.196;2024-03-02T14:09:58;1.23;;;1.13;;
12844;SDS011;68700;48.534;9.196;2024-03-02T14:13:21;2.80;;;1.30;;
12844;SDS011;68700;48.534;9.196;2024-03-02T14:16:43;1.40;;;1.30;;
12844;SDS011;68700;48.534;9.196;2024-03-02T14:20:06;1.23;;;1.13;;
12844;SDS011;68700;48.534;9.196;2024-03-02T14:23:30;1.47;;;1.37;;
12844;SDS011;68700;48.534;9.196;2024-03-02T14:26:52;1.10;;;1.00;;
12844;SDS011;68700;48.534;9.196;2024-03-02T14:30:15;1.20;;;1.10;;
12844;SDS011;68700;48.534;9.196;2024-03-02T14:33:37;1.77;;;1.07;;
12844;SDS011;68700;48.534;9.196;2024-03-02T14:36:59;1.00;;;1.00;;
12844;SDS011;68700;48.534;9.196;2024-03-02T14:40:21;2.10;;;1.17;;
12844;SDS011;68700;48.534;9.196;2024-03-02T14:43:45;1.20;;;1.10;;
12844;SDS011;68700;48.534;9.196;2024-03-02T14:47:08;1.30;;;1.20;;
12844;SDS011;68700;48.534;9.196;2024-03-02T14:50:30;1.50;;;1.40;;
12844;SDS011;68700;48.534;9.196;2024-03-02T14:53:53;1.50;;;1.40;;
12844;SDS011;68700;48.534;9.196;2024-03-02T14:57:15;1.47;;;1.30;;
12844;SDS011;68700;48.534;9.196;2024-03-02T15:00:37;1.40;;;1.30;;
12844;SDS011;68700;48.534;9.196;2024-03-02T15:04:00;1.53;;;1.43;;
12844;SDS011;68700;48.534;9.196;2024-03-02T15:07:22;1.73;;;1.63;;
12844;SDS011;68700;48.534;9.196;2024-03-02T15:10:44;2.93;;;1.80;;
12844;SDS011;68700;48.534;9.196;2024-03-02T15:14:07;2.30;;;1.90;;
12844;SDS011;68700;48.534;9.196;2024-03-02T15:17:29;2.00;;;1.80;;
12844;SDS011;68700;48.534;9.196;2024-03-02T15:20:53;1.70;;;1.60;;
12844;SDS011;68700;48.534;9.196;2024-03-02T15:24:14;1.70;;;1.60;;
12844;SDS011;68700;48.534;9.196;2024-03-02T15:27:36;2.10;;;1.80;;
12844;SDS011;68700;48.534;9.196;2024-03-02T15:30:58;1.50;;;1.40;;
12844;SDS011;68700;48.534;9.196;2024-03-02T15:34:20;3.67;;;2.60;;
12844;SDS011;68700;48.534;9.196;2024-03-02T15:37:43;12.17;;;7.53;;
12844;SDS011;68700;48.534;9.196;2024-03-02T15:41:05;5.83;;;3.57;;
12844;SDS011;68700;48.534;9.196;2024-03-02T15:44:27;2.93;;;2.20;;
12844;SDS011;68700;48.534;9.196;2024-03-02T15:47:48;2.03;;;1.57;;
12844;SDS011;68700;48.534;9.196;2024-03-02T15:51:10;2.93;;;1.53;;
12844;SDS011;68700;48.534;9.196;2024-03-02T15:54:33;1.70;;;1.53;;
12844;SDS011;68700;48.534;9.196;2024-03-02T15:57:55;1.70;;;1.60;;
12844;SDS011;68700;48.534;9.196;2024-03-02T16:01:18;3.97;;;2.40;;
12844;SDS011;68700;48.534;9.196;2024-03-02T16:04:41;1.67;;;1.50;;
12844;SDS011;68700;48.534;9.196;2024-03-02T16:08:04;1.40;;;1.30;;
12844;SDS011;68700;48.534;9.196;2024-03-02T16:11:27;3.03;;;1.40;;
12844;SDS011;68700;48.534;9.196;2024-03-02T16:14:49;3.20;;;2.10;;
12844;SDS011;68700;48.534;9.196;2024-03-02T16:18:11;2.60;;;1.80;;
12844;SDS011;68700;48.534;9.196;2024-03-02T16:21:33;2.50;;;1.87;;
12844;SDS011;68700;48.534;9.196;2024-03-02T16:24:55;1.57;;;1.47;;
12844;SDS011;68700;48.534;9.196;2024-03-02T16:28:18;1.77;;;1.50;;
12844;SDS011;68700;48.534;9.196;2024-03-02T16:31:41;2.23;;;2.00;;
12844;SDS011;68700;48.534;9.196;2024-03-02T16:35:03;15.53;;;9.80;;
12844;SDS011;68700;48.534;9.196;2024-03-02T16:38:26;8.40;;;5.90;;
12844;SDS011;68700;48.534;9.196;2024-03-02T16:41:48;7.30;;;5.30;;
12844;SDS011;68700;48.534;9.196;2024-03-02T16:45:11;5.40;;;4.47;;
12844;SDS011;68700;48.534;9.196;2024-03-02T16:48:33;4.63;;;3.63;;
12844;SDS011;68700;48.534;9.196;2024-03-02T16:51:55;4.40;;;3.70;;
12844;SDS011;68700;48.534;9.196;2024-03-02T16:55:17;6.87;;;3.70;;
12844;SDS011;68700;48.534;9.196;2024-03-02T16:58:39;5.27;;;3.40;;
12844;SDS011;68700;48.534;9.196;2024-03-02T17:02:02;4.30;;;3.70;;
12844;SDS011;68700;48.534;9.196;2024-03-02T17:05:24;4.07;;;3.43;;
12844;SDS011;68700;48.534;9.196;2024-03-02T17:08:46;4.47;;;4.00;;
12844;SDS011;68700;48.534;9.196;2024-03-02T17:12:08;4.93;;;4.27;;
12844;SDS011;68700;48.534;9.196;2024-03-02T17:15:30;5.30;;;4.80;;
12844;SDS011;68700;48.534;9.196;2024-03-02T17:18:53;5.40;;;4.53;;
12844;SDS011;68700;48.534;9.196;2024-03-02T17:22:15;6.90;;;5.20;;
12844;SDS011;68700;48.534;9.196;2024-03-02T17:25:37;6.97;;;5.50;;
12844;SDS011;68700;48.534;9.196;2024-03-02T17:28:59;6.23;;;5.63;;
12844;SDS011;68700;48.534;9.196;2024-03-02T17:32:21;6.07;;;5.47;;
12844;SDS011;68700;48.534;9.196;2024-03-02T17:35:44;6.83;;;5.63;;
12844;SDS011;68700;48.534;9.196;2024-03-02T17:39:07;7.43;;;5.50;;
12844;SDS011;68700;48.534;9.196;2024-03-02T17:42:29;6.23;;;5.27;;
12844;SDS011;68700;48.534;9.196;2024-03-02T17:45:51;6.67;;;5.67;;
12844;SDS011;68700;48.534;9.196;2024-03-02T17:49:13;5.47;;;4.93;;
12844;SDS011;68700;48.534;9.196;2024-03-02T17:52:36;6.17;;;5.43;;
12844;SDS011;68700;48.534;9.196;2024-03-02T17:55:58;10.23;;;5.73;;
12844;SDS011;68700;48.534;9.196;2024-03-02T17:59:20;7.77;;;6.80;;
12844;SDS011;68700;48.534;9.196;2024-03-02T18:02:41;7.50;;;5.77;;
12844;SDS011;68700;48.534;9.196;2024-03-02T18:06:03;8.87;;;7.17;;
12844;SDS011;68700;48.534;9.196;2024-03-02T18:09:27;9.40;;;7.53;;
12844;SDS011;68700;48.534;9.196;2024-03-02T18:12:49;8.73;;;7.83;;
12844;SDS011;68700;48.534;9.196;2024-03-02T18:16:12;8.43;;;7.53;;
12844;SDS011;68700;48.534;9.196;2024-03-02T18:19:34;13.70;;;10.70;;
12844;SDS011;68700;48.534;9.196;2024-03-02T18:22:56;10.63;;;8.80;;
12844;SDS011;68700;48.534;9.196;2024-03-02T18:26:21;11.03;;;8.73;;
12844;SDS011;68700;48.534;9.196;2024-03-02T18:29:42;10.47;;;8.43;;
12844;SDS011;68700;48.534;9.196;2024-03-02T18:33:04;15.53;;;8.57;;
12844;SDS011;68700;48.534;9.196;2024-03-02T18:36:27;12.53;;;9.03;;
12844;SDS011;68700;48.534;9.196;2024-03-02T18:39:48;12.47;;;9.43;;
12844;SDS011;68700;48.534;9.196;2024-03-02T18:43:12;11.13;;;9.57;;
12844;SDS011;68700;48.534;9.196;2024-03-02T18:46:34;14.20;;;10.33;;
12844;SDS011;68700;48.534;9.196;2024-03-02T18:49:56;11.87;;;10.20;;
12844;SDS011;68700;48.534;9.196;2024-03-02T18:53:18;17.57;;;12.10;;
12844;SDS011;68700;48.534;9.196;2024-03-02T18:56:42;15.43;;;11.40;;
12844;SDS011;68700;48.534;9.196;2024-03-02T19:00:07;16.63;;;12.03;;
12844;SDS011;68700;48.534;9.196;2024-03-02T19:03:30;15.73;;;11.80;;
12844;SDS011;68700;48.534;9.196;2024-03-02T19:06:52;14.23;;;11.30;;
12844;SDS011;68700;48.534;9.196;2024-03-02T19:10:14;18.13;;;13.03;;
12844;SDS011;68700;48.534;9.196;2024-03-02T19:13:36;16.20;;;12.37;;
12844;SDS011;68700;48.534;9.196;2024-03-02T19:16:59;17.07;;;12.57;;
12844;SDS011;68700;48.534;9.196;2024-03-02T19:20:21;19.30;;;13.77;;
12844;SDS011;68700;48.534;9.196;2024-03-02T19:23:44;19.83;;;15.80;;
12844;SDS011;68700;48.534;9.196;2024-03-02T19:27:05;19.27;;;15.03;;
12844;SDS011;68700;48.534;9.196;2024-03-02T19:30:27;20.00;;;14.90;;
12844;SDS011;68700;48.534;9.196;2024-03-02T19:33:50;18.07;;;13.73;;
12844;SDS011;68700;48.534;9.196;2024-03-02T19:37:12;17.33;;;13.40;;
12844;SDS011;68700;48.534;9.196;2024-03-02T19:40:34;19.97;;;14.50;;
12844;SDS011;68700;48.534;9.196;2024-03-02T19:43:56;21.00;;;14.30;;
12844;SDS011;68700;48.534;9.196;2024-03-02T19:47:18;17.17;;;13.53;;
12844;SDS011;68700;48.534;9.196;2024-03-02T19:50:41;20.30;;;15.23;;
12844;SDS011;68700;48.534;9.196;2024-03-02T19:54:03;21.13;;;15.03;;
12844;SDS011;68700;48.534;9.196;2024-03-02T19:57:25;20.93;;;14.77;;
12844;SDS011;68700;48.534;9.196;2024-03-02T20:00:49;19.10;;;13.97;;
12844;SDS011;68700;48.534;9.196;2024-03-02T20:04:11;19.50;;;14.67;;
12844;SDS011;68700;48.534;9.196;2024-03-02T20:07:34;23.43;;;14.63;;
12844;SDS011;68700;48.534;9.196;2024-03-02T20:10:56;21.30;;;15.50;;
12844;SDS011;68700;48.534;9.196;2024-03-02T20:14:18;19.13;;;14.23;;